sensor_id;sensor_type;location;lat;lon;timestamp;temperature;humidity
63047;DHT22;62025;39.238;9.126;2023-04-06T00:02:13;12.70;60.80
63047;DHT22;62025;39.238;9.126;2023-04-06T00:04:39;12.80;60.50
63047;DHT22;62025;39.238;9.126;2023-04-06T00:07:05;12.80;60.60
63047;DHT22;62025;39.238;9.126;2023-04-06T00:09:31;12.70;60.80
63047;DHT22;62025;39.238;9.126;2023-04-06T00:11:57;12.70;60.60
63047;DHT22;62025;39.238;9.126;2023-04-06T00:14:23;12.60;60.40
63047;DHT22;62025;39.238;9.126;2023-04-06T00:16:49;12.80;60.20
63047;DHT22;62025;39.238;9.126;2023-04-06T00:19:16;12.80;60.00
63047;DHT22;62025;39.238;9.126;2023-04-06T00:21:42;12.70;60.40
63047;DHT22;62025;39.238;9.126;2023-04-06T00:24:08;12.80;60.20
63047;DHT22;62025;39.238;9.126;2023-04-06T00:26:34;12.70;60.40
63047;DHT22;62025;39.238;9.126;2023-04-06T00:29:00;12.70;60.30
63047;DHT22;62025;39.238;9.126;2023-04-06T00:31:26;12.60;60.60
63047;DHT22;62025;39.238;9.126;2023-04-06T00:33:52;12.60;60.80
63047;DHT22;62025;39.238;9.126;2023-04-06T00:36:18;12.40;61.40
63047;DHT22;62025;39.238;9.126;2023-04-06T00:38:44;12.40;61.60
63047;DHT22;62025;39.238;9.126;2023-04-06T00:41:11;12.30;61.40
63047;DHT22;62025;39.238;9.126;2023-04-06T00:43:37;12.30;61.40
63047;DHT22;62025;39.238;9.126;2023-04-06T00:46:03;12.30;61.50
63047;DHT22;62025;39.238;9.126;2023-04-06T00:48:29;12.40;61.00
63047;DHT22;62025;39.238;9.126;2023-04-06T00:50:57;12.40;61.20
63047;DHT22;62025;39.238;9.126;2023-04-06T00:53:23;12.40;61.00
63047;DHT22;62025;39.238;9.126;2023-04-06T00:55:51;12.30;61.40
63047;DHT22;62025;39.238;9.126;2023-04-06T00:58:17;12.30;61.60
63047;DHT22;62025;39.238;9.126;2023-04-06T01:00:49;12.20;61.80
63047;DHT22;62025;39.238;9.126;2023-04-06T01:03:18;12.20;62.20
63047;DHT22;62025;39.238;9.126;2023-04-06T01:05:44;12.20;61.90
63047;DHT22;62025;39.238;9.126;2023-04-06T01:08:18;12.20;61.90
63047;DHT22;62025;39.238;9.126;2023-04-06T01:10:45;12.20;61.80
63047;DHT22;62025;39.238;9.126;2023-04-06T01:13:21;12.20;61.50
63047;DHT22;62025;39.238;9.126;2023-04-06T01:15:58;12.20;61.40
63047;DHT22;62025;39.238;9.126;2023-04-06T01:18:30;12.30;61.40
63047;DHT22;62025;39.238;9.126;2023-04-06T01:21:12;12.20;61.20
63047;DHT22;62025;39.238;9.126;2023-04-06T01:23:48;12.10;61.50
63047;DHT22;62025;39.238;9.126;2023-04-06T01:26:20;12.20;61.40
63047;DHT22;62025;39.238;9.126;2023-04-06T01:28:47;12.20;61.30
63047;DHT22;62025;39.238;9.126;2023-04-06T01:31:24;12.10;61.50
63047;DHT22;62025;39.238;9.126;2023-04-06T01:33:52;12.00;61.70
63047;DHT22;62025;39.238;9.126;2023-04-06T01:36:21;12.00;61.60
63047;DHT22;62025;39.238;9.126;2023-04-06T01:38:55;12.10;61.50
63047;DHT22;62025;39.238;9.126;2023-04-06T01:41:28;12.10;61.50
63047;DHT22;62025;39.238;9.126;2023-04-06T01:43:54;12.30;61.20
63047;DHT22;62025;39.238;9.126;2023-04-06T01:46:23;12.30;61.20
63047;DHT22;62025;39.238;9.126;2023-04-06T01:48:50;12.20;61.40
63047;DHT22;62025;39.238;9.126;2023-04-06T01:51:36;12.20;61.30
63047;DHT22;62025;39.238;9.126;2023-04-06T01:54:05;12.20;61.50
63047;DHT22;62025;39.238;9.126;2023-04-06T01:56:45;12.30;61.60
63047;DHT22;62025;39.238;9.126;2023-04-06T01:59:27;12.20;61.90
63047;DHT22;62025;39.238;9.126;2023-04-06T02:01:53;12.20;62.10
63047;DHT22;62025;39.238;9.126;2023-04-06T02:04:21;12.10;62.20
63047;DHT22;62025;39.238;9.126;2023-04-06T02:06:52;12.10;62.30
63047;DHT22;62025;39.238;9.126;2023-04-06T02:09:22;12.10;62.30
63047;DHT22;62025;39.238;9.126;2023-04-06T02:11:48;12.10;62.40
63047;DHT22;62025;39.238;9.126;2023-04-06T02:14:14;12.10;62.50
63047;DHT22;62025;39.238;9.126;2023-04-06T02:16:47;12.10;62.50
63047;DHT22;62025;39.238;9.126;2023-04-06T02:19:13;12.00;62.50
63047;DHT22;62025;39.238;9.126;2023-04-06T02:21:39;11.90;62.80
63047;DHT22;62025;39.238;9.126;2023-04-06T02:24:05;11.80;62.90
63047;DHT22;62025;39.238;9.126;2023-04-06T02:26:31;11.90;62.70
63047;DHT22;62025;39.238;9.126;2023-04-06T02:28:57;11.80;62.90
63047;DHT22;62025;39.238;9.126;2023-04-06T02:31:23;11.80;62.90
63047;DHT22;62025;39.238;9.126;2023-04-06T02:33:51;11.80;63.40
63047;DHT22;62025;39.238;9.126;2023-04-06T02:36:16;11.80;63.20
63047;DHT22;62025;39.238;9.126;2023-04-06T02:38:42;11.70;63.40
63047;DHT22;62025;39.238;9.126;2023-04-06T02:41:09;11.70;63.40
63047;DHT22;62025;39.238;9.126;2023-04-06T02:43:36;11.70;63.20
63047;DHT22;62025;39.238;9.126;2023-04-06T02:46:13;11.70;63.10
63047;DHT22;62025;39.238;9.126;2023-04-06T02:48:39;11.80;62.90
63047;DHT22;62025;39.238;9.126;2023-04-06T02:51:06;11.80;63.00
63047;DHT22;62025;39.238;9.126;2023-04-06T02:53:32;11.80;62.90
63047;DHT22;62025;39.238;9.126;2023-04-06T02:55:58;11.70;62.80
63047;DHT22;62025;39.238;9.126;2023-04-06T02:58:32;11.70;63.00
63047;DHT22;62025;39.238;9.126;2023-04-06T03:00:58;11.70;62.80
63047;DHT22;62025;39.238;9.126;2023-04-06T03:03:25;11.70;63.00
63047;DHT22;62025;39.238;9.126;2023-04-06T03:05:51;11.70;63.10
63047;DHT22;62025;39.238;9.126;2023-04-06T03:08:25;11.60;63.10
63047;DHT22;62025;39.238;9.126;2023-04-06T03:10:51;11.60;63.30
63047;DHT22;62025;39.238;9.126;2023-04-06T03:13:18;11.60;63.40
63047;DHT22;62025;39.238;9.126;2023-04-06T03:15:53;11.60;63.20
63047;DHT22;62025;39.238;9.126;2023-04-06T03:18:22;11.60;63.20
63047;DHT22;62025;39.238;9.126;2023-04-06T03:20:51;11.50;63.40
63047;DHT22;62025;39.238;9.126;2023-04-06T03:23:22;11.50;63.50
63047;DHT22;62025;39.238;9.126;2023-04-06T03:25:53;11.50;63.50
63047;DHT22;62025;39.238;9.126;2023-04-06T03:28:20;11.30;64.10
63047;DHT22;62025;39.238;9.126;2023-04-06T03:30:53;11.30;64.20
63047;DHT22;62025;39.238;9.126;2023-04-06T03:33:36;11.30;64.10
63047;DHT22;62025;39.238;9.126;2023-04-06T03:36:02;11.30;64.20
63047;DHT22;62025;39.238;9.126;2023-04-06T03:38:30;11.20;64.50
63047;DHT22;62025;39.238;9.126;2023-04-06T03:40:56;11.20;64.60
63047;DHT22;62025;39.238;9.126;2023-04-06T03:43:25;11.20;64.40
63047;DHT22;62025;39.238;9.126;2023-04-06T03:45:51;11.10;64.40
63047;DHT22;62025;39.238;9.126;2023-04-06T03:48:18;11.20;64.20
63047;DHT22;62025;39.238;9.126;2023-04-06T03:50:44;11.30;64.10
63047;DHT22;62025;39.238;9.126;2023-04-06T03:53:10;11.30;63.60
63047;DHT22;62025;39.238;9.126;2023-04-06T03:55:36;11.20;64.00
63047;DHT22;62025;39.238;9.126;2023-04-06T03:58:02;11.30;63.90
63047;DHT22;62025;39.238;9.126;2023-04-06T04:00:28;11.30;63.90
63047;DHT22;62025;39.238;9.126;2023-04-06T04:02:54;11.30;63.90
63047;DHT22;62025;39.238;9.126;2023-04-06T04:05:20;11.30;63.70
63047;DHT22;62025;39.238;9.126;2023-04-06T04:07:51;11.40;63.40
63047;DHT22;62025;39.238;9.126;2023-04-06T04:10:19;11.30;63.80
63047;DHT22;62025;39.238;9.126;2023-04-06T04:12:45;11.30;63.60
63047;DHT22;62025;39.238;9.126;2023-04-06T04:15:12;11.20;63.70
63047;DHT22;62025;39.238;9.126;2023-04-06T04:17:38;11.10;63.70
63047;DHT22;62025;39.238;9.126;2023-04-06T04:20:05;11.00;64.60
63047;DHT22;62025;39.238;9.126;2023-04-06T04:22:31;11.00;64.60
63047;DHT22;62025;39.238;9.126;2023-04-06T04:24:58;11.00;64.70
63047;DHT22;62025;39.238;9.126;2023-04-06T04:27:25;11.00;64.90
63047;DHT22;62025;39.238;9.126;2023-04-06T04:29:52;10.90;65.30
63047;DHT22;62025;39.238;9.126;2023-04-06T04:32:18;10.90;65.00
63047;DHT22;62025;39.238;9.126;2023-04-06T04:34:45;11.10;64.40
63047;DHT22;62025;39.238;9.126;2023-04-06T04:37:21;11.10;64.30
63047;DHT22;62025;39.238;9.126;2023-04-06T04:39:51;10.90;64.90
63047;DHT22;62025;39.238;9.126;2023-04-06T04:42:17;10.90;64.80
63047;DHT22;62025;39.238;9.126;2023-04-06T04:44:49;11.00;64.70
63047;DHT22;62025;39.238;9.126;2023-04-06T04:47:23;10.90;65.20
63047;DHT22;62025;39.238;9.126;2023-04-06T04:49:49;10.90;65.10
63047;DHT22;62025;39.238;9.126;2023-04-06T04:52:20;10.90;65.10
63047;DHT22;62025;39.238;9.126;2023-04-06T04:54:55;10.90;65.20
63047;DHT22;62025;39.238;9.126;2023-04-06T04:57:25;10.80;65.70
63047;DHT22;62025;39.238;9.126;2023-04-06T04:59:51;10.80;65.80
63047;DHT22;62025;39.238;9.126;2023-04-06T05:02:18;10.80;65.70
63047;DHT22;62025;39.238;9.126;2023-04-06T05:05:00;10.80;66.10
63047;DHT22;62025;39.238;9.126;2023-04-06T05:07:28;10.70;66.30
63047;DHT22;62025;39.238;9.126;2023-04-06T05:09:56;10.80;66.20
63047;DHT22;62025;39.238;9.126;2023-04-06T05:12:26;10.80;66.10
63047;DHT22;62025;39.238;9.126;2023-04-06T05:15:04;10.80;66.50
63047;DHT22;62025;39.238;9.126;2023-04-06T05:17:31;10.70;66.90
63047;DHT22;62025;39.238;9.126;2023-04-06T05:19:58;10.80;66.50
63047;DHT22;62025;39.238;9.126;2023-04-06T05:22:26;10.80;66.00
63047;DHT22;62025;39.238;9.126;2023-04-06T05:25:02;10.80;66.40
63047;DHT22;62025;39.238;9.126;2023-04-06T05:27:30;10.80;66.00
63047;DHT22;62025;39.238;9.126;2023-04-06T05:29:57;10.80;65.70
63047;DHT22;62025;39.238;9.126;2023-04-06T05:32:25;10.80;65.30
63047;DHT22;62025;39.238;9.126;2023-04-06T05:34:52;10.70;65.50
63047;DHT22;62025;39.238;9.126;2023-04-06T05:37:18;10.70;65.50
63047;DHT22;62025;39.238;9.126;2023-04-06T05:39:44;10.70;65.20
63047;DHT22;62025;39.238;9.126;2023-04-06T05:42:10;10.80;64.80
63047;DHT22;62025;39.238;9.126;2023-04-06T05:44:47;10.90;64.40
63047;DHT22;62025;39.238;9.126;2023-04-06T05:47:15;10.90;64.40
63047;DHT22;62025;39.238;9.126;2023-04-06T05:49:42;11.00;64.10
63047;DHT22;62025;39.238;9.126;2023-04-06T05:52:14;10.90;64.20
63047;DHT22;62025;39.238;9.126;2023-04-06T05:54:44;11.10;64.00
63047;DHT22;62025;39.238;9.126;2023-04-06T05:57:10;11.20;63.70
63047;DHT22;62025;39.238;9.126;2023-04-06T05:59:36;11.30;63.40
63047;DHT22;62025;39.238;9.126;2023-04-06T06:02:02;11.30;63.40
63047;DHT22;62025;39.238;9.126;2023-04-06T06:04:32;11.60;62.80
63047;DHT22;62025;39.238;9.126;2023-04-06T06:06:58;11.60;62.70
63047;DHT22;62025;39.238;9.126;2023-04-06T06:09:36;11.70;62.20
63047;DHT22;62025;39.238;9.126;2023-04-06T06:12:22;11.90;61.60
63047;DHT22;62025;39.238;9.126;2023-04-06T06:14:49;12.10;61.50
63047;DHT22;62025;39.238;9.126;2023-04-06T06:17:15;12.30;61.00
63047;DHT22;62025;39.238;9.126;2023-04-06T06:19:45;12.30;60.30
63047;DHT22;62025;39.238;9.126;2023-04-06T06:22:11;12.40;60.20
63047;DHT22;62025;39.238;9.126;2023-04-06T06:24:41;12.60;59.60
63047;DHT22;62025;39.238;9.126;2023-04-06T06:27:07;12.70;59.20
63047;DHT22;62025;39.238;9.126;2023-04-06T06:29:35;12.90;58.90
63047;DHT22;62025;39.238;9.126;2023-04-06T06:32:01;13.00;58.40
63047;DHT22;62025;39.238;9.126;2023-04-06T06:34:28;13.20;58.00
63047;DHT22;62025;39.238;9.126;2023-04-06T06:36:56;13.30;57.60
63047;DHT22;62025;39.238;9.126;2023-04-06T06:39:23;13.50;57.10
63047;DHT22;62025;39.238;9.126;2023-04-06T06:41:50;13.60;56.90
63047;DHT22;62025;39.238;9.126;2023-04-06T06:44:17;13.70;56.70
63047;DHT22;62025;39.238;9.126;2023-04-06T06:46:43;13.80;56.60
63047;DHT22;62025;39.238;9.126;2023-04-06T06:49:09;14.10;56.10
63047;DHT22;62025;39.238;9.126;2023-04-06T06:51:37;14.20;55.70
63047;DHT22;62025;39.238;9.126;2023-04-06T06:54:03;14.30;54.90
63047;DHT22;62025;39.238;9.126;2023-04-06T06:56:30;14.60;54.50
63047;DHT22;62025;39.238;9.126;2023-04-06T06:58:56;14.70;54.10
63047;DHT22;62025;39.238;9.126;2023-04-06T07:01:22;14.80;54.20
63047;DHT22;62025;39.238;9.126;2023-04-06T07:03:48;15.00;54.00
63047;DHT22;62025;39.238;9.126;2023-04-06T07:06:14;15.30;53.90
63047;DHT22;62025;39.238;9.126;2023-04-06T07:08:40;15.40;53.60
63047;DHT22;62025;39.238;9.126;2023-04-06T07:11:06;15.60;53.10
63047;DHT22;62025;39.238;9.126;2023-04-06T07:13:31;15.70;52.60
63047;DHT22;62025;39.238;9.126;2023-04-06T07:15:59;15.90;52.10
63047;DHT22;62025;39.238;9.126;2023-04-06T07:18:27;16.10;51.60
63047;DHT22;62025;39.238;9.126;2023-04-06T07:20:53;16.30;51.00
63047;DHT22;62025;39.238;9.126;2023-04-06T07:23:19;16.50;50.20
63047;DHT22;62025;39.238;9.126;2023-04-06T07:25:45;16.60;49.80
63047;DHT22;62025;39.238;9.126;2023-04-06T07:28:11;16.70;49.20
63047;DHT22;62025;39.238;9.126;2023-04-06T07:30:38;16.80;49.00
63047;DHT22;62025;39.238;9.126;2023-04-06T07:33:05;16.80;49.00
63047;DHT22;62025;39.238;9.126;2023-04-06T07:35:32;17.00;48.80
63047;DHT22;62025;39.238;9.126;2023-04-06T07:37:59;17.20;48.60
63047;DHT22;62025;39.238;9.126;2023-04-06T07:40:26;17.30;48.00
63047;DHT22;62025;39.238;9.126;2023-04-06T07:42:53;17.40;48.20
63047;DHT22;62025;39.238;9.126;2023-04-06T07:45:19;17.50;48.10
63047;DHT22;62025;39.238;9.126;2023-04-06T07:47:46;17.60;47.80
63047;DHT22;62025;39.238;9.126;2023-04-06T07:50:12;17.80;47.80
63047;DHT22;62025;39.238;9.126;2023-04-06T07:52:39;17.80;47.30
63047;DHT22;62025;39.238;9.126;2023-04-06T07:55:06;17.90;47.20
63047;DHT22;62025;39.238;9.126;2023-04-06T07:57:32;17.90;48.00
63047;DHT22;62025;39.238;9.126;2023-04-06T07:59:58;18.00;47.70
63047;DHT22;62025;39.238;9.126;2023-04-06T08:02:25;18.30;47.80
63047;DHT22;62025;39.238;9.126;2023-04-06T08:04:51;18.20;47.20
63047;DHT22;62025;39.238;9.126;2023-04-06T08:07:17;18.20;47.30
63047;DHT22;62025;39.238;9.126;2023-04-06T08:09:43;18.30;47.20
63047;DHT22;62025;39.238;9.126;2023-04-06T08:12:09;18.30;47.00
63047;DHT22;62025;39.238;9.126;2023-04-06T08:14:35;18.40;47.00
63047;DHT22;62025;39.238;9.126;2023-04-06T08:17:01;18.50;47.00
63047;DHT22;62025;39.238;9.126;2023-04-06T08:19:27;18.70;47.20
63047;DHT22;62025;39.238;9.126;2023-04-06T08:21:52;19.00;46.90
63047;DHT22;62025;39.238;9.126;2023-04-06T08:24:19;19.10;45.90
63047;DHT22;62025;39.238;9.126;2023-04-06T08:26:45;19.30;44.70
63047;DHT22;62025;39.238;9.126;2023-04-06T08:29:11;19.20;44.50
63047;DHT22;62025;39.238;9.126;2023-04-06T08:31:37;19.40;44.50
63047;DHT22;62025;39.238;9.126;2023-04-06T08:34:04;19.60;43.40
63047;DHT22;62025;39.238;9.126;2023-04-06T08:36:31;19.70;42.80
63047;DHT22;62025;39.238;9.126;2023-04-06T08:38:57;19.90;42.50
63047;DHT22;62025;39.238;9.126;2023-04-06T08:41:24;19.60;42.50
63047;DHT22;62025;39.238;9.126;2023-04-06T08:43:58;19.90;42.60
63047;DHT22;62025;39.238;9.126;2023-04-06T08:46:26;19.90;42.10
63047;DHT22;62025;39.238;9.126;2023-04-06T08:48:56;20.00;41.60
63047;DHT22;62025;39.238;9.126;2023-04-06T08:51:24;20.00;41.30
63047;DHT22;62025;39.238;9.126;2023-04-06T08:53:54;20.00;40.90
63047;DHT22;62025;39.238;9.126;2023-04-06T08:56:25;20.30;40.30
63047;DHT22;62025;39.238;9.126;2023-04-06T08:58:53;20.20;40.10
63047;DHT22;62025;39.238;9.126;2023-04-06T09:01:28;20.20;39.60
63047;DHT22;62025;39.238;9.126;2023-04-06T09:03:57;20.20;39.90
63047;DHT22;62025;39.238;9.126;2023-04-06T09:06:25;20.40;39.40
63047;DHT22;62025;39.238;9.126;2023-04-06T09:08:53;20.40;39.50
63047;DHT22;62025;39.238;9.126;2023-04-06T09:11:20;20.40;39.30
63047;DHT22;62025;39.238;9.126;2023-04-06T09:16:16;20.40;38.40
63047;DHT22;62025;39.238;9.126;2023-04-06T09:18:43;20.50;37.60
63047;DHT22;62025;39.238;9.126;2023-04-06T09:21:10;20.60;37.90
63047;DHT22;62025;39.238;9.126;2023-04-06T09:23:37;20.60;36.90
63047;DHT22;62025;39.238;9.126;2023-04-06T09:26:10;20.60;37.10
63047;DHT22;62025;39.238;9.126;2023-04-06T09:28:57;20.60;37.00
63047;DHT22;62025;39.238;9.126;2023-04-06T09:31:27;20.80;36.90
63047;DHT22;62025;39.238;9.126;2023-04-06T09:33:56;20.80;36.00
63047;DHT22;62025;39.238;9.126;2023-04-06T09:36:32;20.60;35.60
63047;DHT22;62025;39.238;9.126;2023-04-06T09:39:04;20.50;36.00
63047;DHT22;62025;39.238;9.126;2023-04-06T09:41:32;20.60;36.30
63047;DHT22;62025;39.238;9.126;2023-04-06T09:44:10;20.60;35.20
63047;DHT22;62025;39.238;9.126;2023-04-06T09:46:38;20.70;35.50
63047;DHT22;62025;39.238;9.126;2023-04-06T09:49:06;20.80;35.30
63047;DHT22;62025;39.238;9.126;2023-04-06T09:51:38;20.90;35.70
63047;DHT22;62025;39.238;9.126;2023-04-06T09:54:05;20.90;35.40
63047;DHT22;62025;39.238;9.126;2023-04-06T10:07:57;21.00;34.80
63047;DHT22;62025;39.238;9.126;2023-04-06T10:10:27;21.10;35.60
63047;DHT22;62025;39.238;9.126;2023-04-06T10:12:54;21.00;34.00
63047;DHT22;62025;39.238;9.126;2023-04-06T10:15:21;21.00;34.10
63047;DHT22;62025;39.238;9.126;2023-04-06T10:17:47;20.90;34.10
63047;DHT22;62025;39.238;9.126;2023-04-06T10:20:30;20.90;34.50
63047;DHT22;62025;39.238;9.126;2023-04-06T10:26:21;20.80;34.20
63047;DHT22;62025;39.238;9.126;2023-04-06T10:28:48;20.70;34.10
63047;DHT22;62025;39.238;9.126;2023-04-06T10:31:27;20.70;34.80
63047;DHT22;62025;39.238;9.126;2023-04-06T10:33:58;20.60;34.80
63047;DHT22;62025;39.238;9.126;2023-04-06T10:36:27;20.50;34.90
63047;DHT22;62025;39.238;9.126;2023-04-06T10:39:03;20.50;35.10
63047;DHT22;62025;39.238;9.126;2023-04-06T10:41:44;20.50;34.60
63047;DHT22;62025;39.238;9.126;2023-04-06T10:44:23;20.40;34.20
63047;DHT22;62025;39.238;9.126;2023-04-06T10:46:58;20.40;34.00
63047;DHT22;62025;39.238;9.126;2023-04-06T10:49:26;20.30;33.60
63047;DHT22;62025;39.238;9.126;2023-04-06T10:51:54;20.30;33.80
63047;DHT22;62025;39.238;9.126;2023-04-06T10:54:22;20.10;33.40
63047;DHT22;62025;39.238;9.126;2023-04-06T10:56:50;20.00;34.20
63047;DHT22;62025;39.238;9.126;2023-04-06T10:59:20;20.10;34.60
63047;DHT22;62025;39.238;9.126;2023-04-06T11:01:47;20.00;34.40
63047;DHT22;62025;39.238;9.126;2023-04-06T11:04:16;19.90;34.90
63047;DHT22;62025;39.238;9.126;2023-04-06T11:06:47;20.00;35.20
63047;DHT22;62025;39.238;9.126;2023-04-06T11:09:27;19.90;35.70
63047;DHT22;62025;39.238;9.126;2023-04-06T11:11:55;19.90;35.40
63047;DHT22;62025;39.238;9.126;2023-04-06T11:14:22;19.90;35.70
63047;DHT22;62025;39.238;9.126;2023-04-06T11:16:48;19.90;35.10
63047;DHT22;62025;39.238;9.126;2023-04-06T11:19:17;19.70;35.10
63047;DHT22;62025;39.238;9.126;2023-04-06T11:21:48;19.70;36.40
63047;DHT22;62025;39.238;9.126;2023-04-06T11:24:20;19.60;35.20
63047;DHT22;62025;39.238;9.126;2023-04-06T11:26:53;19.50;35.70
63047;DHT22;62025;39.238;9.126;2023-04-06T11:29:23;19.60;36.10
63047;DHT22;62025;39.238;9.126;2023-04-06T11:31:58;19.60;36.80
63047;DHT22;62025;39.238;9.126;2023-04-06T11:34:26;19.70;36.50
63047;DHT22;62025;39.238;9.126;2023-04-06T11:36:59;19.50;36.60
63047;DHT22;62025;39.238;9.126;2023-04-06T11:39:32;19.40;36.60
63047;DHT22;62025;39.238;9.126;2023-04-06T11:42:08;19.40;35.90
63047;DHT22;62025;39.238;9.126;2023-04-06T11:44:36;19.30;36.30
63047;DHT22;62025;39.238;9.126;2023-04-06T11:47:08;19.30;36.20
63047;DHT22;62025;39.238;9.126;2023-04-06T11:49:38;19.20;36.10
63047;DHT22;62025;39.238;9.126;2023-04-06T11:52:21;19.10;36.20
63047;DHT22;62025;39.238;9.126;2023-04-06T11:54:51;18.90;37.00
63047;DHT22;62025;39.238;9.126;2023-04-06T11:57:19;19.00;37.10
63047;DHT22;62025;39.238;9.126;2023-04-06T11:59:48;19.10;36.50
63047;DHT22;62025;39.238;9.126;2023-04-06T12:02:15;19.00;36.30
63047;DHT22;62025;39.238;9.126;2023-04-06T12:04:41;19.00;36.20
63047;DHT22;62025;39.238;9.126;2023-04-06T12:07:07;18.90;37.20
63047;DHT22;62025;39.238;9.126;2023-04-06T12:09:33;18.90;36.40
63047;DHT22;62025;39.238;9.126;2023-04-06T12:12:00;18.60;36.30
63047;DHT22;62025;39.238;9.126;2023-04-06T12:14:26;18.70;36.60
63047;DHT22;62025;39.238;9.126;2023-04-06T12:16:52;18.70;36.60
63047;DHT22;62025;39.238;9.126;2023-04-06T12:19:18;18.80;36.60
63047;DHT22;62025;39.238;9.126;2023-04-06T12:21:44;18.80;36.40
63047;DHT22;62025;39.238;9.126;2023-04-06T12:24:10;18.80;36.40
63047;DHT22;62025;39.238;9.126;2023-04-06T12:26:36;18.80;37.10
63047;DHT22;62025;39.238;9.126;2023-04-06T12:29:02;18.80;38.00
63047;DHT22;62025;39.238;9.126;2023-04-06T12:31:39;18.80;36.60
63047;DHT22;62025;39.238;9.126;2023-04-06T12:34:06;18.80;36.10
63047;DHT22;62025;39.238;9.126;2023-04-06T12:36:33;18.80;37.50
63047;DHT22;62025;39.238;9.126;2023-04-06T12:38:59;18.80;36.80
63047;DHT22;62025;39.238;9.126;2023-04-06T12:41:27;18.80;36.20
63047;DHT22;62025;39.238;9.126;2023-04-06T12:43:54;18.70;36.30
63047;DHT22;62025;39.238;9.126;2023-04-06T12:46:20;18.80;36.20
63047;DHT22;62025;39.238;9.126;2023-04-06T12:48:46;18.70;35.10
63047;DHT22;62025;39.238;9.126;2023-04-06T12:51:12;18.60;34.30
63047;DHT22;62025;39.238;9.126;2023-04-06T12:53:39;18.70;34.90
63047;DHT22;62025;39.238;9.126;2023-04-06T12:56:13;18.60;35.20
63047;DHT22;62025;39.238;9.126;2023-04-06T12:58:44;18.60;34.20
63047;DHT22;62025;39.238;9.126;2023-04-06T13:01:11;18.70;35.00
63047;DHT22;62025;39.238;9.126;2023-04-06T13:03:40;18.70;33.90
63047;DHT22;62025;39.238;9.126;2023-04-06T13:06:07;18.30;35.50
63047;DHT22;62025;39.238;9.126;2023-04-06T13:08:37;17.80;42.00
63047;DHT22;62025;39.238;9.126;2023-04-06T13:11:04;17.70;43.60
63047;DHT22;62025;39.238;9.126;2023-04-06T13:13:30;17.60;42.80
63047;DHT22;62025;39.238;9.126;2023-04-06T13:16:01;17.90;41.70
63047;DHT22;62025;39.238;9.126;2023-04-06T13:18:30;17.60;41.40
63047;DHT22;62025;39.238;9.126;2023-04-06T13:20:57;17.80;41.00
63047;DHT22;62025;39.238;9.126;2023-04-06T13:23:25;17.90;40.80
63047;DHT22;62025;39.238;9.126;2023-04-06T13:26:02;17.10;44.10
63047;DHT22;62025;39.238;9.126;2023-04-06T13:28:31;16.80;45.30
63047;DHT22;62025;39.238;9.126;2023-04-06T13:30:58;16.80;44.50
63047;DHT22;62025;39.238;9.126;2023-04-06T13:33:26;16.80;43.90
63047;DHT22;62025;39.238;9.126;2023-04-06T13:35:52;16.40;44.70
63047;DHT22;62025;39.238;9.126;2023-04-06T13:38:18;16.40;44.70
63047;DHT22;62025;39.238;9.126;2023-04-06T13:40:45;16.60;44.80
63047;DHT22;62025;39.238;9.126;2023-04-06T13:43:11;16.30;44.70
63047;DHT22;62025;39.238;9.126;2023-04-06T13:45:38;16.20;44.10
63047;DHT22;62025;39.238;9.126;2023-04-06T13:48:04;16.00;44.90
63047;DHT22;62025;39.238;9.126;2023-04-06T13:50:32;16.10;44.70
63047;DHT22;62025;39.238;9.126;2023-04-06T13:52:59;16.40;44.40
63047;DHT22;62025;39.238;9.126;2023-04-06T13:55:25;16.40;43.70
63047;DHT22;62025;39.238;9.126;2023-04-06T13:57:51;16.50;43.70
63047;DHT22;62025;39.238;9.126;2023-04-06T14:00:18;16.30;43.60
63047;DHT22;62025;39.238;9.126;2023-04-06T14:02:44;16.20;43.20
63047;DHT22;62025;39.238;9.126;2023-04-06T14:05:10;16.60;42.70
63047;DHT22;62025;39.238;9.126;2023-04-06T14:07:37;16.30;42.10
63047;DHT22;62025;39.238;9.126;2023-04-06T14:10:04;16.10;43.00
63047;DHT22;62025;39.238;9.126;2023-04-06T14:12:31;16.40;43.10
63047;DHT22;62025;39.238;9.126;2023-04-06T14:14:57;16.70;43.10
63047;DHT22;62025;39.238;9.126;2023-04-06T14:17:23;16.60;43.10
63047;DHT22;62025;39.238;9.126;2023-04-06T14:19:49;16.20;44.50
63047;DHT22;62025;39.238;9.126;2023-04-06T14:22:15;16.10;44.30
63047;DHT22;62025;39.238;9.126;2023-04-06T14:24:41;16.30;44.10
63047;DHT22;62025;39.238;9.126;2023-04-06T14:27:07;16.30;45.00
63047;DHT22;62025;39.238;9.126;2023-04-06T14:29:33;16.00;45.70
63047;DHT22;62025;39.238;9.126;2023-04-06T14:32:00;16.40;46.10
63047;DHT22;62025;39.238;9.126;2023-04-06T14:34:26;16.30;46.00
63047;DHT22;62025;39.238;9.126;2023-04-06T14:36:52;16.30;47.10
63047;DHT22;62025;39.238;9.126;2023-04-06T14:39:19;15.90;47.80
63047;DHT22;62025;39.238;9.126;2023-04-06T14:41:45;16.10;47.00
63047;DHT22;62025;39.238;9.126;2023-04-06T14:44:16;16.20;46.60
63047;DHT22;62025;39.238;9.126;2023-04-06T14:46:42;16.50;45.70
63047;DHT22;62025;39.238;9.126;2023-04-06T14:49:08;16.40;46.40
63047;DHT22;62025;39.238;9.126;2023-04-06T14:51:35;16.10;46.80
63047;DHT22;62025;39.238;9.126;2023-04-06T14:54:01;16.30;46.60
63047;DHT22;62025;39.238;9.126;2023-04-06T14:56:28;16.30;46.00
63047;DHT22;62025;39.238;9.126;2023-04-06T14:58:58;16.40;46.10
63047;DHT22;62025;39.238;9.126;2023-04-06T15:01:25;16.60;46.40
63047;DHT22;62025;39.238;9.126;2023-04-06T15:03:51;16.10;47.70
63047;DHT22;62025;39.238;9.126;2023-04-06T15:06:17;16.20;48.10
63047;DHT22;62025;39.238;9.126;2023-04-06T15:08:47;15.90;48.50
63047;DHT22;62025;39.238;9.126;2023-04-06T15:11:13;16.20;48.40
63047;DHT22;62025;39.238;9.126;2023-04-06T15:13:40;16.00;49.00
63047;DHT22;62025;39.238;9.126;2023-04-06T15:16:07;16.10;49.50
63047;DHT22;62025;39.238;9.126;2023-04-06T15:18:34;15.80;51.10
63047;DHT22;62025;39.238;9.126;2023-04-06T15:21:01;15.90;50.80
63047;DHT22;62025;39.238;9.126;2023-04-06T15:23:27;16.00;50.60
63047;DHT22;62025;39.238;9.126;2023-04-06T15:25:57;15.70;50.80
63047;DHT22;62025;39.238;9.126;2023-04-06T15:28:23;15.80;50.80
63047;DHT22;62025;39.238;9.126;2023-04-06T15:30:49;15.70;50.30
63047;DHT22;62025;39.238;9.126;2023-04-06T15:33:16;15.90;50.00
63047;DHT22;62025;39.238;9.126;2023-04-06T15:35:43;15.90;50.60
63047;DHT22;62025;39.238;9.126;2023-04-06T15:38:09;15.90;50.50
63047;DHT22;62025;39.238;9.126;2023-04-06T15:40:44;15.90;50.90
63047;DHT22;62025;39.238;9.126;2023-04-06T15:43:11;15.80;49.70
63047;DHT22;62025;39.238;9.126;2023-04-06T15:45:37;15.70;49.80
63047;DHT22;62025;39.238;9.126;2023-04-06T15:48:04;15.70;50.20
63047;DHT22;62025;39.238;9.126;2023-04-06T15:50:31;15.60;49.00
63047;DHT22;62025;39.238;9.126;2023-04-06T15:52:57;15.80;49.50
63047;DHT22;62025;39.238;9.126;2023-04-06T15:55:23;15.60;50.00